Time;durP1;ratioP1;P1;durP2;ratioP2;P2;SDS_P1;SDS_P2;PMS_P1;PMS_P2;Temp;Humidity;BMP_temperature;BMP_pressure;BME280_temperature;BME280_humidity;BME280_pressure;Samples;Min_cycle;Max_cycle;Signal;HPM_P1;HPM_P2
2021/12/02 00:01:23;;;;;;;90.35;55.92;;;;;;;;;;4914389;29;20030;-77
2021/12/02 00:04:10;;;;;;;113.00;69.90;;;;;;;;;;4915095;29;20040;-77
2021/12/02 00:06:56;;;;;;;94.40;60.40;;;;;;;;;;4913905;29;20032;-77
2021/12/02 00:09:43;;;;;;;113.57;71.50;;;;;;;;;;4912677;29;20032;-77
2021/12/02 00:12:30;;;;;;;116.38;72.88;;;;;;;;;;4914784;29;20036;-76
2021/12/02 00:15:22;;;;;;;108.07;67.88;;;;;;;;;;4915388;29;20063;-77
2021/12/02 00:18:41;;;;;;;107.85;68.90;;;;;;;;;;4915464;29;20044;-77
2021/12/02 00:21:18;;;;;;;62.05;42.80;;;;;;;;;;4908287;29;20032;-76
2021/12/02 00:24:09;;;;;;;109.53;71.07;;;;;;;;;;4914666;29;20039;-76
2021/12/02 00:27:16;;;;;;;104.07;65.22;;;;;;;;;;4915932;29;20040;-78
2021/12/02 00:30:03;;;;;;;79.18;54.25;;;;;;;;;;4918561;29;20044;-76
2021/12/02 00:32:50;;;;;;;102.40;63.70;;;;;;;;;;4931564;29;20042;-74
2021/12/02 00:35:36;;;;;;;106.32;66.47;;;;;;;;;;4930584;29;20052;-76
2021/12/02 00:38:24;;;;;;;91.07;55.53;;;;;;;;;;4929390;29;20013;-75
2021/12/02 00:41:17;;;;;;;109.35;73.88;;;;;;;;;;4929702;29;20033;-75
2021/12/02 00:44:04;;;;;;;106.25;67.60;;;;;;;;;;4928539;29;20032;-76
2021/12/02 00:46:51;;;;;;;102.13;66.82;;;;;;;;;;4929286;29;20459;-75
2021/12/02 00:49:39;;;;;;;125.13;76.43;;;;;;;;;;4935503;29;20030;-76
2021/12/02 00:52:28;;;;;;;114.40;75.20;;;;;;;;;;4932268;29;20051;-76
2021/12/02 00:55:15;;;;;;;109.15;68.03;;;;;;;;;;4940997;29;20038;-76
2021/12/02 00:58:02;;;;;;;112.50;75.05;;;;;;;;;;4934790;29;20020;-75
2021/12/02 01:00:50;;;;;;;122.85;77.32;;;;;;;;;;4932771;29;20036;-75
2021/12/02 01:03:38;;;;;;;109.95;71.07;;;;;;;;;;4916046;29;20043;-75
2021/12/02 01:06:25;;;;;;;125.20;76.90;;;;;;;;;;4918280;29;20024;-76
2021/12/02 01:09:12;;;;;;;127.85;78.10;;;;;;;;;;4907789;29;20036;-75
2021/12/02 01:11:59;;;;;;;107.40;68.45;;;;;;;;;;4914551;29;20055;-76
2021/12/02 01:14:46;;;;;;;117.63;70.10;;;;;;;;;;4911013;29;20114;-78
2021/12/02 01:17:33;;;;;;;116.55;72.25;;;;;;;;;;4911120;29;20035;-76
2021/12/02 01:20:20;;;;;;;106.03;68.55;;;;;;;;;;4912345;29;20063;-75
2021/12/02 01:23:07;;;;;;;105.78;68.47;;;;;;;;;;4913193;29;20488;-76
2021/12/02 01:25:58;;;;;;;102.32;64.60;;;;;;;;;;4914156;29;20609;-75
2021/12/02 01:28:46;;;;;;;110.47;70.55;;;;;;;;;;4898542;29;20037;-75
2021/12/02 01:31:35;;;;;;;95.32;61.45;;;;;;;;;;4903465;29;20040;-75
2021/12/02 01:34:23;;;;;;;82.63;53.90;;;;;;;;;;4911685;29;20040;-75
2021/12/02 01:37:10;;;;;;;109.55;66.30;;;;;;;;;;4911453;29;20043;-75
2021/12/02 01:39:57;;;;;;;103.95;68.15;;;;;;;;;;4911614;29;20048;-76
2021/12/02 01:42:46;;;;;;;110.50;72.78;;;;;;;;;;4912178;29;20125;-75
2021/12/02 01:45:33;;;;;;;114.80;69.90;;;;;;;;;;4913004;29;20039;-75
2021/12/02 01:48:22;;;;;;;93.40;58.97;;;;;;;;;;4911229;29;20048;-75
2021/12/02 01:51:13;;;;;;;119.88;75.25;;;;;;;;;;4905998;29;20043;-75
2021/12/02 01:54:05;;;;;;;121.10;76.72;;;;;;;;;;4912628;29;20039;-75
2021/12/02 01:56:52;;;;;;;124.90;75.93;;;;;;;;;;4912728;29;20042;-76
2021/12/02 01:59:39;;;;;;;118.82;77.20;;;;;;;;;;4906137;29;20040;-75
2021/12/02 02:02:28;;;;;;;96.20;62.90;;;;;;;;;;4903731;29;20535;-75
2021/12/02 02:05:16;;;;;;;117.18;72.25;;;;;;;;;;4902537;29;20033;-75
2021/12/02 02:08:05;;;;;;;105.30;66.90;;;;;;;;;;4910943;29;20522;-75
2021/12/02 02:10:51;;;;;;;111.95;70.90;;;;;;;;;;4908717;29;20051;-75
2021/12/02 02:13:41;;;;;;;99.38;64.18;;;;;;;;;;4913194;29;20028;-74
2021/12/02 02:16:29;;;;;;;123.07;77.40;;;;;;;;;;4909508;29;20036;-75
2021/12/02 02:19:16;;;;;;;98.25;61.95;;;;;;;;;;4906978;29;20032;-74
2021/12/02 02:22:03;;;;;;;105.07;71.25;;;;;;;;;;4907606;29;20116;-74
2021/12/02 02:24:50;;;;;;;109.93;71.63;;;;;;;;;;4906519;29;20462;-74
2021/12/02 02:27:37;;;;;;;119.97;78.75;;;;;;;;;;4899728;29;20028;-74
2021/12/02 02:30:24;;;;;;;98.05;60.22;;;;;;;;;;4898420;29;20036;-74
2021/12/02 02:33:12;;;;;;;87.53;59.67;;;;;;;;;;4907048;29;20056;-74
2021/12/02 02:35:58;;;;;;;117.10;75.45;;;;;;;;;;4907039;29;20040;-74
2021/12/02 02:38:54;;;;;;;124.20;80.25;;;;;;;;;;4915016;29;20066;-74
2021/12/02 02:41:43;;;;;;;124.40;78.60;;;;;;;;;;4907533;29;20053;-74
2021/12/02 02:44:31;;;;;;;98.32;61.10;;;;;;;;;;4909105;29;20093;-74
2021/12/02 02:47:18;;;;;;;114.40;72.65;;;;;;;;;;4901555;29;20044;-74
2021/12/02 02:50:06;;;;;;;121.88;78.32;;;;;;;;;;4925090;29;20052;-75
2021/12/02 02:53:04;;;;;;;112.85;72.72;;;;;;;;;;4913718;29;20032;-74
2021/12/02 03:04:35;;;;;;;122.00;79.57;;;;;;;;;;4920033;29;20036;-75
2021/12/02 03:10:21;;;;;;;121.95;80.95;;;;;;;;;;4913411;29;20036;-75
2021/12/02 03:13:21;;;;;;;108.88;69.32;;;;;;;;;;4910413;29;20068;-75
2021/12/02 03:19:23;;;;;;;120.55;75.18;;;;;;;;;;4914107;29;20032;-74
2021/12/02 03:22:11;;;;;;;91.32;60.40;;;;;;;;;;4915409;29;20039;-74
2021/12/02 03:24:57;;;;;;;93.97;61.20;;;;;;;;;;4907554;29;20472;-76
2021/12/02 03:27:44;;;;;;;104.20;66.63;;;;;;;;;;4908468;29;20042;-76
2021/12/02 03:30:31;;;;;;;125.55;80.90;;;;;;;;;;4908276;29;20082;-76
2021/12/02 03:33:18;;;;;;;94.07;58.40;;;;;;;;;;4913034;29;20046;-76
2021/12/02 03:36:05;;;;;;;115.43;71.80;;;;;;;;;;4913782;29;20044;-76
2021/12/02 03:38:51;;;;;;;111.88;72.05;;;;;;;;;;4918970;29;20083;-76
2021/12/02 03:41:39;;;;;;;116.03;74.40;;;;;;;;;;4921980;29;20026;-76
2021/12/02 03:44:26;;;;;;;110.20;70.43;;;;;;;;;;4923010;29;20040;-75
2021/12/02 03:47:13;;;;;;;129.35;85.25;;;;;;;;;;4914551;29;20032;-75
2021/12/02 03:49:59;;;;;;;113.22;74.07;;;;;;;;;;4910416;29;20040;-76
2021/12/02 03:52:46;;;;;;;123.20;79.50;;;;;;;;;;4912871;29;20043;-76
2021/12/02 03:55:33;;;;;;;102.40;64.55;;;;;;;;;;4898794;29;20760;-76
2021/12/02 03:58:19;;;;;;;90.70;56.75;;;;;;;;;;4911566;29;20042;-75
2021/12/02 04:01:07;;;;;;;113.57;70.80;;;;;;;;;;4913111;29;20033;-75
2021/12/02 04:03:54;;;;;;;97.82;63.72;;;;;;;;;;4907668;29;20040;-75
2021/12/02 04:06:40;;;;;;;105.90;68.07;;;;;;;;;;4908788;29;20028;-75
2021/12/02 04:09:34;;;;;;;117.88;78.53;;;;;;;;;;4906689;29;20487;-75
2021/12/02 04:15:32;;;;;;;132.57;83.50;;;;;;;;;;4909243;29;20047;-77
2021/12/02 04:18:19;;;;;;;122.90;76.47;;;;;;;;;;4909547;29;20040;-76
2021/12/02 04:21:06;;;;;;;103.70;64.95;;;;;;;;;;4916008;29;20040;-76
2021/12/02 04:23:52;;;;;;;100.13;64.93;;;;;;;;;;4912746;29;20028;-76
2021/12/02 04:26:40;;;;;;;93.85;59.47;;;;;;;;;;4902551;29;20043;-75
2021/12/02 04:29:27;;;;;;;85.20;53.47;;;;;;;;;;4909389;29;20051;-76
2021/12/02 04:32:14;;;;;;;89.13;57.50;;;;;;;;;;4909928;29;20050;-76
2021/12/02 04:35:01;;;;;;;82.50;55.05;;;;;;;;;;4905126;29;20059;-76
2021/12/02 04:37:51;;;;;;;93.43;57.45;;;;;;;;;;4909522;29;20036;-76
2021/12/02 04:40:41;;;;;;;93.60;61.60;;;;;;;;;;4910177;29;20058;-74
2021/12/02 04:43:28;;;;;;;61.63;38.70;;;;;;;;;;4908070;29;20514;-75
2021/12/02 04:46:15;;;;;;;83.53;56.10;;;;;;;;;;4912371;29;20036;-76
2021/12/02 04:49:02;;;;;;;60.97;40.20;;;;;;;;;;4910023;29;20036;-75
2021/12/02 04:51:48;;;;;;;65.80;41.97;;;;;;;;;;4913838;29;20044;-77
2021/12/02 04:54:35;;;;;;;63.17;40.80;;;;;;;;;;4911009;29;20051;-77
2021/12/02 04:57:22;;;;;;;54.35;33.13;;;;;;;;;;4912253;29;20052;-76
2021/12/02 05:00:09;;;;;;;29.70;19.23;;;;;;;;;;4904893;29;20024;-76
2021/12/02 05:02:55;;;;;;;64.60;39.08;;;;;;;;;;4905349;29;20039;-77
2021/12/02 05:05:42;;;;;;;49.08;29.90;;;;;;;;;;4904260;29;20047;-77
2021/12/02 05:08:29;;;;;;;56.22;36.03;;;;;;;;;;4908332;29;20098;-77
2021/12/02 05:11:15;;;;;;;57.35;38.20;;;;;;;;;;4908595;29;20050;-74
2021/12/02 05:14:02;;;;;;;62.20;37.17;;;;;;;;;;4913606;29;20032;-76
2021/12/02 05:16:49;;;;;;;52.67;36.15;;;;;;;;;;4914204;29;20043;-77
2021/12/02 05:19:36;;;;;;;36.28;24.00;;;;;;;;;;4912287;29;20082;-76
2021/12/02 05:22:22;;;;;;;49.13;31.40;;;;;;;;;;4907374;29;20403;-75
2021/12/02 05:25:09;;;;;;;37.60;25.02;;;;;;;;;;4909828;29;20504;-75
2021/12/02 05:27:56;;;;;;;30.90;20.58;;;;;;;;;;4908848;29;20043;-75
2021/12/02 05:30:43;;;;;;;52.63;34.22;;;;;;;;;;4900210;29;20051;-74
2021/12/02 05:33:29;;;;;;;41.53;25.63;;;;;;;;;;4905817;29;20400;-75
2021/12/02 05:36:16;;;;;;;41.95;26.70;;;;;;;;;;4911785;29;20055;-75
2021/12/02 05:39:03;;;;;;;42.00;24.02;;;;;;;;;;4911960;29;20075;-75
2021/12/02 05:41:53;;;;;;;37.72;25.27;;;;;;;;;;4902196;29;20043;-75
2021/12/02 05:44:40;;;;;;;48.17;30.25;;;;;;;;;;4906699;29;20058;-76
2021/12/02 05:47:27;;;;;;;39.50;24.33;;;;;;;;;;4908969;29;20040;-75
2021/12/02 05:50:14;;;;;;;36.10;23.55;;;;;;;;;;4901978;29;20047;-75
2021/12/02 05:53:00;;;;;;;34.33;21.98;;;;;;;;;;4911329;29;20044;-75
2021/12/02 05:55:47;;;;;;;30.85;19.00;;;;;;;;;;4906583;29;20487;-76
2021/12/02 05:58:34;;;;;;;24.77;15.05;;;;;;;;;;4907759;29;20051;-76
2021/12/02 06:01:20;;;;;;;34.67;20.27;;;;;;;;;;4911765;29;20039;-75
2021/12/02 06:04:08;;;;;;;30.05;18.27;;;;;;;;;;4903746;29;20079;-74
2021/12/02 06:06:55;;;;;;;31.75;19.58;;;;;;;;;;4911254;29;20055;-74
2021/12/02 06:09:42;;;;;;;23.92;16.17;;;;;;;;;;4908106;29;20052;-75
2021/12/02 06:12:28;;;;;;;24.42;16.17;;;;;;;;;;4901263;29;20048;-74
2021/12/02 06:15:15;;;;;;;30.60;17.90;;;;;;;;;;4908529;29;20407;-74
2021/12/02 06:18:02;;;;;;;34.17;21.40;;;;;;;;;;4904530;29;20066;-74
2021/12/02 06:20:53;;;;;;;22.67;13.07;;;;;;;;;;4911311;29;20032;-75
2021/12/02 06:23:41;;;;;;;26.85;16.60;;;;;;;;;;4908755;29;20039;-74
2021/12/02 06:26:28;;;;;;;27.23;17.90;;;;;;;;;;4912653;29;20031;-75
2021/12/02 06:29:14;;;;;;;22.50;13.88;;;;;;;;;;4901652;29;20036;-76
2021/12/02 06:32:03;;;;;;;20.08;13.07;;;;;;;;;;4907899;29;20424;-75
2021/12/02 06:34:50;;;;;;;16.00;10.55;;;;;;;;;;4909008;29;20044;-75
2021/12/02 06:37:37;;;;;;;16.85;11.02;;;;;;;;;;4899355;29;20032;-75
2021/12/02 06:40:24;;;;;;;24.48;15.27;;;;;;;;;;4910953;29;20337;-75
2021/12/02 06:43:11;;;;;;;25.35;15.38;;;;;;;;;;4907004;29;20036;-76
2021/12/02 06:45:58;;;;;;;20.48;12.75;;;;;;;;;;4910341;29;20036;-76
2021/12/02 06:48:47;;;;;;;18.55;12.20;;;;;;;;;;4909727;29;20131;-76
2021/12/02 06:51:33;;;;;;;18.70;12.35;;;;;;;;;;4912106;29;20082;-76
2021/12/02 06:54:20;;;;;;;13.45;9.88;;;;;;;;;;4911241;29;20028;-76
2021/12/02 06:57:07;;;;;;;19.67;11.63;;;;;;;;;;4904422;29;20039;-75
2021/12/02 06:59:54;;;;;;;18.02;11.05;;;;;;;;;;4911148;29;20039;-75
2021/12/02 07:02:40;;;;;;;12.48;8.00;;;;;;;;;;4909951;29;20036;-75
2021/12/02 07:05:29;;;;;;;19.38;13.60;;;;;;;;;;4909091;29;20496;-74
2021/12/02 07:08:16;;;;;;;28.02;18.98;;;;;;;;;;4898875;29;20542;-75
2021/12/02 07:11:05;;;;;;;20.88;13.38;;;;;;;;;;4910361;29;20044;-75
2021/12/02 07:13:59;;;;;;;25.10;17.92;;;;;;;;;;4911675;29;20141;-79
2021/12/02 07:16:46;;;;;;;26.40;18.05;;;;;;;;;;4909205;29;20050;-76
2021/12/02 07:19:38;;;;;;;17.77;12.50;;;;;;;;;;4912980;29;20545;-74
2021/12/02 07:22:25;;;;;;;15.75;10.77;;;;;;;;;;4923615;29;20040;-74
2021/12/02 07:25:11;;;;;;;15.95;11.10;;;;;;;;;;4915788;29;20035;-74
2021/12/02 07:27:58;;;;;;;20.98;13.00;;;;;;;;;;4919518;29;20039;-74
2021/12/02 07:30:46;;;;;;;19.35;12.32;;;;;;;;;;4908957;29;20028;-75
2021/12/02 07:33:38;;;;;;;17.85;11.98;;;;;;;;;;4911746;29;20063;-75
2021/12/02 07:36:25;;;;;;;19.73;11.98;;;;;;;;;;4913370;29;20052;-74
2021/12/02 07:39:12;;;;;;;18.67;11.48;;;;;;;;;;4913854;29;20789;-76
2021/12/02 07:41:58;;;;;;;15.88;10.27;;;;;;;;;;4912387;29;20058;-75
2021/12/02 07:44:45;;;;;;;17.50;11.07;;;;;;;;;;4912571;29;20040;-74
2021/12/02 07:47:34;;;;;;;18.33;11.77;;;;;;;;;;4912764;29;20876;-75
2021/12/02 07:50:21;;;;;;;18.17;11.13;;;;;;;;;;4913889;29;20030;-74
2021/12/02 07:53:08;;;;;;;20.05;12.13;;;;;;;;;;4913335;29;20036;-74
2021/12/02 07:55:56;;;;;;;17.83;11.40;;;;;;;;;;4907590;29;20432;-75
2021/12/02 07:58:44;;;;;;;15.10;10.05;;;;;;;;;;4902623;29;20047;-76
2021/12/02 08:01:34;;;;;;;10.50;7.28;;;;;;;;;;4908170;29;20036;-75
2021/12/02 08:04:20;;;;;;;16.10;9.50;;;;;;;;;;4913705;29;20046;-74
2021/12/02 08:07:07;;;;;;;12.85;8.82;;;;;;;;;;4914163;29;20040;-74
2021/12/02 08:09:54;;;;;;;13.50;8.48;;;;;;;;;;4909230;29;20052;-75
2021/12/02 08:12:46;;;;;;;15.57;9.60;;;;;;;;;;4904580;29;20049;-76
2021/12/02 08:15:33;;;;;;;15.00;9.75;;;;;;;;;;4911078;29;20498;-75
2021/12/02 08:18:20;;;;;;;12.38;8.23;;;;;;;;;;4910675;29;20043;-76
2021/12/02 08:21:07;;;;;;;11.95;7.60;;;;;;;;;;4913169;29;20042;-76
2021/12/02 08:23:53;;;;;;;10.88;6.82;;;;;;;;;;4902818;29;20032;-74
2021/12/02 08:26:40;;;;;;;12.20;8.18;;;;;;;;;;4901836;29;20032;-75
2021/12/02 08:29:27;;;;;;;10.18;6.00;;;;;;;;;;4902972;29;20040;-76
2021/12/02 08:32:14;;;;;;;11.93;7.18;;;;;;;;;;4904138;29;20055;-75
2021/12/02 08:35:00;;;;;;;9.63;6.03;;;;;;;;;;4912445;29;20060;-75
2021/12/02 08:37:49;;;;;;;11.45;7.93;;;;;;;;;;4910162;29;20042;-75
2021/12/02 08:40:37;;;;;;;11.85;6.22;;;;;;;;;;4910215;29;20444;-76
2021/12/02 08:43:24;;;;;;;10.07;5.97;;;;;;;;;;4910774;29;20032;-75
2021/12/02 08:46:11;;;;;;;7.68;5.43;;;;;;;;;;4920776;29;20048;-76
2021/12/02 08:48:57;;;;;;;8.63;5.55;;;;;;;;;;4909628;29;20111;-74
2021/12/02 08:51:45;;;;;;;9.27;6.20;;;;;;;;;;4910523;29;20040;-74
2021/12/02 08:54:32;;;;;;;6.88;4.07;;;;;;;;;;4911115;29;20036;-75
2021/12/02 08:57:19;;;;;;;9.15;5.55;;;;;;;;;;4911541;29;20032;-75
2021/12/02 09:00:07;;;;;;;8.15;4.65;;;;;;;;;;4908683;29;20044;-75
2021/12/02 09:02:54;;;;;;;6.68;3.55;;;;;;;;;;4916702;29;20032;-73
2021/12/02 09:05:41;;;;;;;10.10;5.25;;;;;;;;;;4897784;29;20043;-76
2021/12/02 09:08:28;;;;;;;9.43;5.88;;;;;;;;;;4908060;29;20491;-75
2021/12/02 09:11:15;;;;;;;6.20;3.55;;;;;;;;;;4913759;29;20044;-75
2021/12/02 09:14:05;;;;;;;8.27;5.43;;;;;;;;;;4911026;29;20761;-75
2021/12/02 09:16:52;;;;;;;6.18;3.92;;;;;;;;;;4908165;29;20796;-75
2021/12/02 09:19:38;;;;;;;6.13;4.07;;;;;;;;;;4904577;29;20052;-75
2021/12/02 09:22:25;;;;;;;6.38;4.40;;;;;;;;;;4924436;29;20490;-76
2021/12/02 09:25:13;;;;;;;6.43;3.65;;;;;;;;;;4908710;29;20048;-75
2021/12/02 09:28:00;;;;;;;7.05;4.47;;;;;;;;;;4913134;29;20076;-75
2021/12/02 09:30:47;;;;;;;6.53;4.40;;;;;;;;;;4911299;29;20063;-75
2021/12/02 09:33:34;;;;;;;4.22;2.65;;;;;;;;;;4911673;29;20051;-75
2021/12/02 09:36:21;;;;;;;6.40;3.80;;;;;;;;;;4913684;29;20142;-75
2021/12/02 09:39:09;;;;;;;4.35;2.38;;;;;;;;;;4908612;29;20040;-75
2021/12/02 09:41:56;;;;;;;5.25;3.50;;;;;;;;;;4912682;29;20231;-75
2021/12/02 09:44:46;;;;;;;4.65;3.55;;;;;;;;;;4914408;29;20047;-74
2021/12/02 09:47:36;;;;;;;6.00;3.22;;;;;;;;;;4913350;29;20038;-75
2021/12/02 09:50:31;;;;;;;4.72;3.00;;;;;;;;;;4908927;29;20047;-75
2021/12/02 09:53:21;;;;;;;5.50;3.08;;;;;;;;;;4909494;29;20775;-74
2021/12/02 09:56:29;;;;;;;3.25;2.50;;;;;;;;;;4910299;29;20039;-81
2021/12/02 09:59:33;;;;;;;4.38;1.95;;;;;;;;;;4907324;29;20024;-75
2021/12/02 10:02:22;;;;;;;3.28;2.30;;;;;;;;;;4914136;29;20500;-76
2021/12/02 10:05:12;;;;;;;4.47;2.13;;;;;;;;;;4908416;29;20677;-74
2021/12/02 10:08:03;;;;;;;3.40;1.90;;;;;;;;;;4901773;29;20044;-75
2021/12/02 10:10:59;;;;;;;4.80;2.03;;;;;;;;;;4903587;29;20490;-74
2021/12/02 10:13:58;;;;;;;4.20;2.58;;;;;;;;;;4910341;29;20039;-75
2021/12/02 10:16:45;;;;;;;3.38;1.90;;;;;;;;;;4911424;29;20029;-74
2021/12/02 10:19:32;;;;;;;6.35;2.88;;;;;;;;;;4908056;29;20032;-74
2021/12/02 10:22:22;;;;;;;4.90;2.13;;;;;;;;;;4912265;29;20492;-75
2021/12/02 10:25:10;;;;;;;3.10;2.15;;;;;;;;;;4908840;29;20040;-74
2021/12/02 10:28:04;;;;;;;4.30;2.70;;;;;;;;;;4909979;29;20051;-75
2021/12/02 10:30:53;;;;;;;2.85;1.73;;;;;;;;;;4907854;29;20496;-77
2021/12/02 10:33:42;;;;;;;3.72;1.60;;;;;;;;;;4914401;29;20515;-75
2021/12/02 10:36:30;;;;;;;4.53;2.10;;;;;;;;;;4904131;29;20074;-75
2021/12/02 10:39:19;;;;;;;3.53;1.73;;;;;;;;;;4910074;29;20037;-76
2021/12/02 10:42:07;;;;;;;3.42;1.92;;;;;;;;;;4915120;29;20380;-75
2021/12/02 10:44:57;;;;;;;4.75;2.10;;;;;;;;;;4908895;29;20055;-76
2021/12/02 10:47:48;;;;;;;2.67;1.58;;;;;;;;;;4914861;29;20032;-75
2021/12/02 10:50:40;;;;;;;2.65;1.60;;;;;;;;;;4911221;29;20032;-75
2021/12/02 10:53:26;;;;;;;2.53;1.40;;;;;;;;;;4901596;29;20040;-76
2021/12/02 10:56:13;;;;;;;3.72;1.70;;;;;;;;;;4908799;29;20045;-75
2021/12/02 10:59:20;;;;;;;2.85;1.45;;;;;;;;;;4917161;29;20032;-76
2021/12/02 11:02:28;;;;;;;3.38;1.48;;;;;;;;;;4918994;29;20040;-76
2021/12/02 11:05:24;;;;;;;1.85;1.30;;;;;;;;;;4915900;29;20028;-75
2021/12/02 11:08:11;;;;;;;2.83;1.30;;;;;;;;;;4914104;29;20042;-76
2021/12/02 11:10:58;;;;;;;6.18;1.42;;;;;;;;;;4916471;29;20028;-74
2021/12/02 11:13:49;;;;;;;4.57;1.85;;;;;;;;;;4919957;29;20054;-74
2021/12/02 11:16:36;;;;;;;3.00;1.50;;;;;;;;;;4907111;29;20029;-74
2021/12/02 11:19:22;;;;;;;4.05;1.50;;;;;;;;;;4911635;29;20041;-74
2021/12/02 11:22:10;;;;;;;2.95;1.70;;;;;;;;;;4924489;29;20024;-74
2021/12/02 11:24:58;;;;;;;1.77;1.08;;;;;;;;;;4917012;29;20412;-74
2021/12/02 11:27:49;;;;;;;2.65;1.38;;;;;;;;;;4926001;29;20030;-74
2021/12/02 11:30:36;;;;;;;2.30;1.00;;;;;;;;;;4917092;29;20034;-74
2021/12/02 11:33:30;;;;;;;2.45;1.20;;;;;;;;;;4911504;29;20054;-74
2021/12/02 11:36:22;;;;;;;3.50;1.95;;;;;;;;;;4927104;29;20044;-75
2021/12/02 11:39:09;;;;;;;3.35;1.48;;;;;;;;;;4922798;29;20040;-74
2021/12/02 11:41:56;;;;;;;2.08;1.33;;;;;;;;;;4917918;29;20036;-74
2021/12/02 11:44:43;;;;;;;2.75;1.10;;;;;;;;;;4931189;29;20028;-75
2021/12/02 11:47:29;;;;;;;2.50;1.10;;;;;;;;;;4937359;29;20062;-76
2021/12/02 11:50:17;;;;;;;2.55;1.20;;;;;;;;;;4933814;29;20040;-75
2021/12/02 11:53:03;;;;;;;2.97;1.33;;;;;;;;;;4939410;29;20052;-76
2021/12/02 11:55:54;;;;;;;1.15;0.80;;;;;;;;;;4931445;29;20031;-75
2021/12/02 11:58:41;;;;;;;1.17;0.70;;;;;;;;;;4932450;29;20038;-74
2021/12/02 12:01:28;;;;;;;0.93;0.50;;;;;;;;;;4931740;29;20110;-75
2021/12/02 12:04:15;;;;;;;2.55;1.20;;;;;;;;;;4932434;29;20032;-75
2021/12/02 12:07:09;;;;;;;2.00;1.00;;;;;;;;;;4932027;29;20036;-75
2021/12/02 12:10:15;;;;;;;2.20;1.10;;;;;;;;;;4930990;29;20036;-75
2021/12/02 12:13:20;;;;;;;1.83;0.80;;;;;;;;;;4929999;29;20062;-75
2021/12/02 12:16:19;;;;;;;2.88;1.17;;;;;;;;;;4915140;29;20044;-75
2021/12/02 12:19:28;;;;;;;1.83;0.90;;;;;;;;;;4911929;29;20043;-76
2021/12/02 12:22:28;;;;;;;3.08;0.90;;;;;;;;;;4923529;29;20064;-74
2021/12/02 12:25:29;;;;;;;1.75;0.80;;;;;;;;;;4916797;29;20512;-74
2021/12/02 12:28:16;;;;;;;1.90;0.85;;;;;;;;;;4911095;29;20031;-75
2021/12/02 12:31:07;;;;;;;1.60;0.90;;;;;;;;;;4910762;29;20051;-75
2021/12/02 12:33:53;;;;;;;2.42;1.10;;;;;;;;;;4924401;29;20070;-75
2021/12/02 12:36:44;;;;;;;1.08;0.85;;;;;;;;;;4909669;29;20045;-75
2021/12/02 12:39:33;;;;;;;1.33;0.80;;;;;;;;;;4912058;29;20040;-75
2021/12/02 12:42:23;;;;;;;2.10;0.73;;;;;;;;;;4915628;29;20107;-74
2021/12/02 12:45:11;;;;;;;1.88;0.88;;;;;;;;;;4906905;29;20052;-77
2021/12/02 12:47:59;;;;;;;1.20;0.63;;;;;;;;;;4909307;29;20029;-75
2021/12/02 12:50:47;;;;;;;2.17;1.20;;;;;;;;;;4915085;29;20034;-75
2021/12/02 12:53:35;;;;;;;1.70;0.88;;;;;;;;;;4907024;29;20048;-75
2021/12/02 12:56:48;;;;;;;1.83;0.70;;;;;;;;;;4902083;29;20044;-74
2021/12/02 13:00:04;;;;;;;1.60;0.68;;;;;;;;;;4904172;29;20032;-75
2021/12/02 13:02:54;;;;;;;1.27;0.80;;;;;;;;;;4908049;29;20039;-75
2021/12/02 13:05:53;;;;;;;1.90;0.95;;;;;;;;;;4911102;29;20058;-75
2021/12/02 13:08:50;;;;;;;1.40;0.70;;;;;;;;;;4913140;29;20484;-74
2021/12/02 13:11:37;;;;;;;1.35;0.60;;;;;;;;;;4912686;29;20048;-74
2021/12/02 13:14:25;;;;;;;2.55;0.93;;;;;;;;;;4911113;29;20043;-75
2021/12/02 13:17:30;;;;;;;1.50;0.63;;;;;;;;;;4905783;29;20028;-75
2021/12/02 13:20:19;;;;;;;0.85;0.60;;;;;;;;;;4914802;29;20050;-75
2021/12/02 13:23:20;;;;;;;1.52;0.60;;;;;;;;;;4914086;29;20047;-74
2021/12/02 13:26:15;;;;;;;1.50;0.80;;;;;;;;;;4907455;29;20038;-74
2021/12/02 13:29:08;;;;;;;2.33;0.93;;;;;;;;;;4914432;29;20032;-75
2021/12/02 13:31:56;;;;;;;1.70;0.77;;;;;;;;;;4914722;29;20048;-75
2021/12/02 13:34:43;;;;;;;1.48;0.70;;;;;;;;;;4907653;29;20032;-75
2021/12/02 13:37:30;;;;;;;2.60;0.75;;;;;;;;;;4913297;29;20528;-74
2021/12/02 13:40:17;;;;;;;1.48;0.70;;;;;;;;;;4913050;29;20043;-74
2021/12/02 13:43:04;;;;;;;1.85;0.70;;;;;;;;;;4902004;29;20339;-74
2021/12/02 13:45:51;;;;;;;2.15;0.82;;;;;;;;;;4914101;29;20051;-74
2021/12/02 13:48:52;;;;;;;1.00;0.60;;;;;;;;;;4913842;29;20039;-75
2021/12/02 13:54:58;;;;;;;1.58;0.60;;;;;;;;;;4913677;29;20033;-75
2021/12/02 13:57:50;;;;;;;2.00;0.60;;;;;;;;;;4906108;29;20028;-76
2021/12/02 14:00:38;;;;;;;1.38;0.77;;;;;;;;;;4909547;29;20047;-75
2021/12/02 14:03:25;;;;;;;1.55;0.65;;;;;;;;;;4911057;29;20036;-74
2021/12/02 14:06:12;;;;;;;2.05;0.90;;;;;;;;;;4911009;29;20028;-74
2021/12/02 14:08:59;;;;;;;1.67;0.60;;;;;;;;;;4911464;29;20032;-76
2021/12/02 14:11:46;;;;;;;1.63;0.50;;;;;;;;;;4899065;29;20036;-75
2021/12/02 14:14:32;;;;;;;2.42;0.70;;;;;;;;;;4908306;29;20063;-75
2021/12/02 14:17:19;;;;;;;1.40;0.43;;;;;;;;;;4899909;29;20035;-75
2021/12/02 14:20:08;;;;;;;2.50;0.77;;;;;;;;;;4915316;29;20035;-77
2021/12/02 14:22:56;;;;;;;0.98;0.60;;;;;;;;;;4913584;29;20032;-75
2021/12/02 14:25:46;;;;;;;1.48;0.60;;;;;;;;;;4908502;29;20035;-75
2021/12/02 14:28:44;;;;;;;1.00;0.50;;;;;;;;;;4906932;29;20028;-74
2021/12/02 14:31:39;;;;;;;2.05;0.73;;;;;;;;;;4916116;29;20032;-75
2021/12/02 14:34:26;;;;;;;1.42;0.50;;;;;;;;;;4911329;29;20039;-74
2021/12/02 14:37:25;;;;;;;1.33;0.50;;;;;;;;;;4913422;29;20052;-75
2021/12/02 14:40:32;;;;;;;1.42;0.75;;;;;;;;;;4908617;29;20040;-74
2021/12/02 14:43:20;;;;;;;2.90;0.70;;;;;;;;;;4911139;29;20040;-75
2021/12/02 14:46:14;;;;;;;3.25;0.70;;;;;;;;;;4916920;29;20051;-75
2021/12/02 14:49:04;;;;;;;1.30;0.40;;;;;;;;;;4911563;29;20497;-74
2021/12/02 14:51:56;;;;;;;0.85;0.32;;;;;;;;;;4908899;29;20059;-74
2021/12/02 14:54:45;;;;;;;1.13;0.57;;;;;;;;;;4915511;29;20440;-75
2021/12/02 14:57:47;;;;;;;1.35;0.60;;;;;;;;;;4914932;29;20028;-76
2021/12/02 15:00:33;;;;;;;2.45;0.57;;;;;;;;;;4915129;29;20040;-76
2021/12/02 15:03:28;;;;;;;1.42;0.60;;;;;;;;;;4911594;29;20041;-74
2021/12/02 15:06:33;;;;;;;1.88;0.40;;;;;;;;;;4914644;29;20496;-75
2021/12/02 15:09:36;;;;;;;2.25;0.50;;;;;;;;;;4913249;29;20033;-75
2021/12/02 15:12:32;;;;;;;0.68;0.40;;;;;;;;;;4911928;29;20050;-75
2021/12/02 15:15:23;;;;;;;1.52;0.50;;;;;;;;;;4913398;29;20047;-75
2021/12/02 15:18:09;;;;;;;2.80;0.60;;;;;;;;;;4915076;29;20050;-76
2021/12/02 15:20:59;;;;;;;1.70;0.70;;;;;;;;;;4907791;29;20560;-75
2021/12/02 15:23:51;;;;;;;1.10;0.55;;;;;;;;;;4910449;29;20034;-76
2021/12/02 15:26:38;;;;;;;1.60;0.77;;;;;;;;;;4905339;29;20034;-76
2021/12/02 15:29:39;;;;;;;1.27;0.50;;;;;;;;;;4910889;29;20032;-75
2021/12/02 15:32:27;;;;;;;1.83;0.40;;;;;;;;;;4899012;29;20408;-75
2021/12/02 15:35:14;;;;;;;1.00;0.50;;;;;;;;;;4907308;29;20048;-75
2021/12/02 15:38:02;;;;;;;1.67;0.50;;;;;;;;;;4906152;29;20040;-74
2021/12/02 15:40:49;;;;;;;1.00;0.50;;;;;;;;;;4909108;29;20032;-76
2021/12/02 15:43:55;;;;;;;0.80;0.40;;;;;;;;;;4906763;29;20028;-74
2021/12/02 15:46:43;;;;;;;1.27;0.50;;;;;;;;;;4911950;29;20028;-74
2021/12/02 15:49:31;;;;;;;1.00;0.50;;;;;;;;;;4915143;29;20040;-74
2021/12/02 15:52:18;;;;;;;1.30;0.50;;;;;;;;;;4900292;29;20051;-75
2021/12/02 15:55:08;;;;;;;1.15;0.68;;;;;;;;;;4894012;29;20040;-75
2021/12/02 15:57:54;;;;;;;1.27;0.70;;;;;;;;;;4909026;29;20036;-76
2021/12/02 16:00:47;;;;;;;0.45;0.22;;;;;;;;;;4915947;29;20518;-83
2021/12/02 16:03:39;;;;;;;2.08;0.70;;;;;;;;;;4913261;29;20055;-86
2021/12/02 16:06:36;;;;;;;7.53;0.90;;;;;;;;;;4914421;29;20028;-85
2021/12/02 16:09:42;;;;;;;4.95;0.60;;;;;;;;;;4917047;29;20065;-85
2021/12/02 16:12:30;;;;;;;0.90;0.60;;;;;;;;;;4910548;29;20044;-84
2021/12/02 16:15:18;;;;;;;3.97;0.50;;;;;;;;;;4912522;29;20506;-84
2021/12/02 16:18:04;;;;;;;1.83;0.50;;;;;;;;;;4902496;29;20036;-83
2021/12/02 16:20:51;;;;;;;1.13;0.40;;;;;;;;;;4910553;29;20040;-84
2021/12/02 16:23:39;;;;;;;2.63;0.50;;;;;;;;;;4916721;29;20054;-85
2021/12/02 16:26:26;;;;;;;0.85;0.40;;;;;;;;;;4895694;29;20040;-84
2021/12/02 16:29:13;;;;;;;2.75;0.60;;;;;;;;;;4918039;29;20036;-84
2021/12/02 16:31:59;;;;;;;1.55;0.40;;;;;;;;;;4921675;29;20036;-86
2021/12/02 16:34:46;;;;;;;1.85;0.50;;;;;;;;;;4918351;29;20042;-85
2021/12/02 16:37:33;;;;;;;2.72;0.70;;;;;;;;;;4917427;29;20036;-84
2021/12/02 16:40:28;;;;;;;2.90;0.63;;;;;;;;;;4912230;29;20036;-85
2021/12/02 16:43:16;;;;;;;0.63;0.40;;;;;;;;;;4910555;29;20036;-84
2021/12/02 16:46:03;;;;;;;1.92;0.57;;;;;;;;;;4920685;29;20136;-84
2021/12/02 16:48:51;;;;;;;2.90;0.80;;;;;;;;;;4914279;29;20032;-84
2021/12/02 16:51:38;;;;;;;2.33;0.40;;;;;;;;;;4917332;29;20033;-85
2021/12/02 16:54:25;;;;;;;1.40;0.40;;;;;;;;;;4915294;29;20047;-85
2021/12/02 16:57:12;;;;;;;2.65;0.70;;;;;;;;;;4895301;29;20032;-85
2021/12/02 16:59:59;;;;;;;0.82;0.40;;;;;;;;;;4916997;29;20052;-85